createdAt,value
2022-10-23T00:12:38.650Z,0
2022-10-23T00:27:34.697Z,0
2022-10-23T00:42:30.798Z,0
2022-10-23T01:12:24.645Z,0
2022-10-23T01:27:20.364Z,0
2022-10-23T01:42:15.952Z,0
2022-10-23T01:57:11.818Z,0
2022-10-23T02:12:08.521Z,0
2022-10-23T02:27:04.372Z,0
2022-10-23T02:42:00.988Z,0
2022-10-23T02:56:56.831Z,0
2022-10-23T03:11:52.925Z,0
2022-10-23T03:26:49.098Z,0
2022-10-23T03:41:45.356Z,0
2022-10-23T03:56:42.045Z,0
2022-10-23T04:11:38.495Z,0
2022-10-23T04:26:34.577Z,0
2022-10-23T04:41:30.575Z,0
2022-10-23T04:56:27.005Z,0
2022-10-23T05:11:23.411Z,0
2022-10-23T05:26:19.170Z,0
2022-10-23T05:41:15.587Z,0
2022-10-23T05:56:11.809Z,0.02
2022-10-23T06:11:08.014Z,0.02
2022-10-23T06:26:04.290Z,0.02
2022-10-23T06:41:00.641Z,0.04
2022-10-23T06:55:56.628Z,0.06
2022-10-23T07:10:52.977Z,0.08
2022-10-23T07:25:49.174Z,0.08
2022-10-23T07:40:45.510Z,0.07
2022-10-23T07:55:41.843Z,0.1
2022-10-23T08:10:38.286Z,0.13
2022-10-23T08:25:35.110Z,0.13
2022-10-23T08:40:31.943Z,0.2
2022-10-23T08:55:28.682Z,0.18
2022-10-23T09:10:25.091Z,0.15
2022-10-23T09:25:20.984Z,0.21
2022-10-23T09:40:17.072Z,0.18
2022-10-23T09:55:13.596Z,0.2
2022-10-23T10:10:09.986Z,0.21
2022-10-23T10:25:06.397Z,0.1
2022-10-23T10:40:02.656Z,0.1
2022-10-23T10:54:59.271Z,0.1
2022-10-23T11:09:55.470Z,0.08
2022-10-23T11:24:52.440Z,0.1
2022-10-23T11:39:47.873Z,0.22
2022-10-23T11:54:44.531Z,0.19
2022-10-23T12:09:41.006Z,0.29
2022-10-23T12:24:37.913Z,0.24
2022-10-23T12:39:34.244Z,0.2
2022-10-23T12:54:30.223Z,0.21
2022-10-23T13:09:26.770Z,0.16
2022-10-23T13:24:22.788Z,0.16
2022-10-23T13:39:18.526Z,0.1
2022-10-23T13:54:14.876Z,0.12
2022-10-23T14:09:11.296Z,0.12
2022-10-23T14:24:07.414Z,0.1
2022-10-23T14:39:03.341Z,0.02
2022-10-23T14:53:59.118Z,0.06
2022-10-23T15:08:54.941Z,0.04
2022-10-23T15:23:51.071Z,0.03
2022-10-23T15:38:47.055Z,0.03
2022-10-23T15:53:43.342Z,0.02
2022-10-23T16:08:39.466Z,0.01
2022-10-23T16:23:35.707Z,0.01
2022-10-23T16:38:31.860Z,0
2022-10-23T16:53:28.183Z,0
2022-10-23T16:58:06.528Z,0
2022-10-23T17:00:06.620Z,0
2022-10-23T17:07:28.034Z,0
2022-10-23T17:22:23.654Z,0
2022-10-23T17:30:13.830Z,0
2022-10-23T17:45:09.736Z,0
2022-10-23T18:00:05.619Z,0
2022-10-23T18:15:01.194Z,0
2022-10-23T18:29:57.255Z,0
2022-10-23T18:44:53.681Z,0
2022-10-23T18:59:49.905Z,0
2022-10-23T19:14:45.958Z,0
2022-10-23T19:29:42.209Z,0
2022-10-23T19:44:38.102Z,0.02
2022-10-23T19:59:34.934Z,0
2022-10-23T20:14:31.141Z,0
2022-10-23T20:29:27.190Z,0
2022-10-23T20:44:23.234Z,0.02
2022-10-23T20:59:19.587Z,0
2022-10-23T21:14:15.924Z,0
2022-10-23T21:29:18.324Z,0
2022-10-23T21:44:09.147Z,0
2022-10-23T22:14:01.790Z,0
2022-10-23T22:28:57.547Z,0
2022-10-23T22:43:52.964Z,0
2022-10-23T22:58:49.186Z,0
2022-10-23T23:13:45.303Z,0
2022-10-23T23:28:41.455Z,0
2022-10-23T23:43:36.913Z,0
2022-10-23T23:58:33.152Z,0
